Winter Garden, FL (34777)

5:17 AM EST on February 14, 2016 (GMT -0500)
APRSWXNET | | Change Station
CLOSE
Current Station
Personal Weather Station
Location: Winter Garden, FL
Elevation: 120 ft
Nearby Weather Stations

Elev 120 ft 28.50 °N, 81.60 °W | Updated 21 minutes ago

Clear
Clear
44 °F
Feels Like 44 °F
N
0
Wind Variable Wind from North
Gusts 2.0 mph

Today
High -- | Low -- °F
--% Chance of Precip.
Yesterday
High -- | Low -- °F
Precip. -- in
Pressure 30.26 in
Visibility 10.0 miles
Clouds Clear
Windchill 44 °F
Dew Point 38 °F
Humidity 80%
Rainfall in
Snow Depth Not available.
7:05 AM 6:15 PM
Waxing Crescent, 40% visible
METAR KORL 140953Z AUTO 36007KT 10SM CLR 09/03 A3025 RMK AO2 SLP246 T00890028
Pressure 30.26 in
Visibility 10.0 miles
Clouds Clear
Windchill 44 °F
Dew Point 38 °F
Humidity 80%
Rainfall in
Snow Depth Not available.
7:05 AM 6:15 PM
Waxing Crescent, 40% visible
METAR KORL 140953Z AUTO 36007KT 10SM CLR 09/03 A3025 RMK AO2 SLP246 T00890028

10-Day Weather Forecast

Almanac

Astronomy

Feb. 14, 2016 Rise Set
Actual Time
Civil Twilight
Nautical Twilight
Astronomical Twilight
Moon
Length of Visible Light
Length of Day
Tomorrow will be .
, % of the Moon is Illuminated

Today's Extremes

State Highs State Lows

Community

WunderPhotos

Upload Photos

1,892,765 photos uploaded!

WunderBlog® & News

Nearby

Air Quality

  Air Quality AQ Index Pollutant
Not available.

Snow Depth

Station Depth Elevation

Earthquake Activity

City Distance Mag. Time & Date
Minimum magnitude displayed is 2.5.

Coastal Water Temperatures

Place Temperature

Stations

Nearby Weather Stations

Station Location Temp. Windchill Dew Point Humidity Wind Precip. Elev Updated Type
                   

Watches & Warnings

There are currently no watches in effect.